sensor_id;sensor_type;location;lat;lon;timestamp;temperature;humidity
49379;DHT22;35254;47.990;-1.608;2023-11-21T00:01:19;21.40;59.20
49379;DHT22;35254;47.990;-1.608;2023-11-21T00:03:45;21.40;59.70
49379;DHT22;35254;47.990;-1.608;2023-11-21T00:06:11;21.40;59.70
49379;DHT22;35254;47.990;-1.608;2023-11-21T00:08:37;21.40;59.80
49379;DHT22;35254;47.990;-1.608;2023-11-21T00:11:03;21.40;59.50
49379;DHT22;35254;47.990;-1.608;2023-11-21T00:13:31;21.40;59.80
49379;DHT22;35254;47.990;-1.608;2023-11-21T00:15:57;21.40;59.70
49379;DHT22;35254;47.990;-1.608;2023-11-21T00:18:23;21.40;59.80
49379;DHT22;35254;47.990;-1.608;2023-11-21T00:20:49;21.40;59.80
49379;DHT22;35254;47.990;-1.608;2023-11-21T00:23:14;21.40;59.70
49379;DHT22;35254;47.990;-1.608;2023-11-21T00:25:40;21.40;59.90
49379;DHT22;35254;47.990;-1.608;2023-11-21T00:28:06;21.40;59.90
49379;DHT22;35254;47.990;-1.608;2023-11-21T00:30:31;21.40;59.80
49379;DHT22;35254;47.990;-1.608;2023-11-21T00:32:57;21.30;59.80
49379;DHT22;35254;47.990;-1.608;2023-11-21T00:35:23;21.40;59.80
49379;DHT22;35254;47.990;-1.608;2023-11-21T00:37:49;21.40;59.70
49379;DHT22;35254;47.990;-1.608;2023-11-21T00:40:15;21.40;59.80
49379;DHT22;35254;47.990;-1.608;2023-11-21T00:42:41;21.40;59.80
49379;DHT22;35254;47.990;-1.608;2023-11-21T00:45:07;21.40;59.90
49379;DHT22;35254;47.990;-1.608;2023-11-21T00:47:33;21.40;59.60
49379;DHT22;35254;47.990;-1.608;2023-11-21T00:49:59;21.30;59.70
49379;DHT22;35254;47.990;-1.608;2023-11-21T00:52:24;21.40;59.90
49379;DHT22;35254;47.990;-1.608;2023-11-21T00:54:50;21.30;60.00
49379;DHT22;35254;47.990;-1.608;2023-11-21T00:57:16;21.30;59.70
49379;DHT22;35254;47.990;-1.608;2023-11-21T00:59:42;21.30;60.20
49379;DHT22;35254;47.990;-1.608;2023-11-21T01:02:07;21.40;59.90
49379;DHT22;35254;47.990;-1.608;2023-11-21T01:04:35;21.30;60.00
49379;DHT22;35254;47.990;-1.608;2023-11-21T01:07:01;21.40;60.00
49379;DHT22;35254;47.990;-1.608;2023-11-21T01:09:27;21.40;60.20
49379;DHT22;35254;47.990;-1.608;2023-11-21T01:11:53;21.30;60.00
49379;DHT22;35254;47.990;-1.608;2023-11-21T01:14:19;21.30;60.20
49379;DHT22;35254;47.990;-1.608;2023-11-21T01:16:44;21.30;60.10
49379;DHT22;35254;47.990;-1.608;2023-11-21T01:19:10;21.30;60.20
49379;DHT22;35254;47.990;-1.608;2023-11-21T01:21:35;21.30;59.30
49379;DHT22;35254;47.990;-1.608;2023-11-21T01:24:01;21.30;60.00
49379;DHT22;35254;47.990;-1.608;2023-11-21T01:26:28;21.40;60.00
49379;DHT22;35254;47.990;-1.608;2023-11-21T01:28:53;21.40;60.50
49379;DHT22;35254;47.990;-1.608;2023-11-21T01:31:20;21.40;60.60
49379;DHT22;35254;47.990;-1.608;2023-11-21T01:33:46;21.40;60.60
49379;DHT22;35254;47.990;-1.608;2023-11-21T01:36:11;21.40;60.30
49379;DHT22;35254;47.990;-1.608;2023-11-21T01:38:37;21.40;60.40
49379;DHT22;35254;47.990;-1.608;2023-11-21T01:41:03;21.40;60.60
49379;DHT22;35254;47.990;-1.608;2023-11-21T01:43:30;21.40;60.60
49379;DHT22;35254;47.990;-1.608;2023-11-21T01:45:57;21.40;60.60
49379;DHT22;35254;47.990;-1.608;2023-11-21T01:48:24;21.40;60.60
49379;DHT22;35254;47.990;-1.608;2023-11-21T01:50:50;21.40;60.60
49379;DHT22;35254;47.990;-1.608;2023-11-21T01:53:17;21.40;60.40
49379;DHT22;35254;47.990;-1.608;2023-11-21T01:55:44;21.40;60.40
49379;DHT22;35254;47.990;-1.608;2023-11-21T01:58:10;21.40;60.30
49379;DHT22;35254;47.990;-1.608;2023-11-21T02:00:38;21.40;60.40
49379;DHT22;35254;47.990;-1.608;2023-11-21T02:03:04;21.40;60.30
49379;DHT22;35254;47.990;-1.608;2023-11-21T02:05:30;21.40;60.30
49379;DHT22;35254;47.990;-1.608;2023-11-21T02:07:55;21.40;60.30
49379;DHT22;35254;47.990;-1.608;2023-11-21T02:10:22;21.40;60.30
49379;DHT22;35254;47.990;-1.608;2023-11-21T02:12:51;21.40;60.50
49379;DHT22;35254;47.990;-1.608;2023-11-21T02:15:17;21.40;60.20
49379;DHT22;35254;47.990;-1.608;2023-11-21T02:17:47;21.40;60.30
49379;DHT22;35254;47.990;-1.608;2023-11-21T02:20:16;21.40;60.40
49379;DHT22;35254;47.990;-1.608;2023-11-21T02:22:43;21.50;60.20
49379;DHT22;35254;47.990;-1.608;2023-11-21T02:25:10;21.40;60.20
49379;DHT22;35254;47.990;-1.608;2023-11-21T02:27:36;21.40;60.10
49379;DHT22;35254;47.990;-1.608;2023-11-21T02:30:03;21.40;59.90
49379;DHT22;35254;47.990;-1.608;2023-11-21T02:32:30;21.40;60.00
49379;DHT22;35254;47.990;-1.608;2023-11-21T02:34:57;21.50;60.10
49379;DHT22;35254;47.990;-1.608;2023-11-21T02:37:26;21.40;60.00
49379;DHT22;35254;47.990;-1.608;2023-11-21T02:39:52;21.40;59.80
49379;DHT22;35254;47.990;-1.608;2023-11-21T02:42:18;21.40;59.80
49379;DHT22;35254;47.990;-1.608;2023-11-21T02:44:44;21.50;59.70
49379;DHT22;35254;47.990;-1.608;2023-11-21T02:47:09;21.40;59.50
49379;DHT22;35254;47.990;-1.608;2023-11-21T02:49:35;21.40;59.40
49379;DHT22;35254;47.990;-1.608;2023-11-21T02:52:01;21.40;59.50
49379;DHT22;35254;47.990;-1.608;2023-11-21T02:54:27;21.40;59.30
49379;DHT22;35254;47.990;-1.608;2023-11-21T02:56:53;21.50;59.30
49379;DHT22;35254;47.990;-1.608;2023-11-21T02:59:18;21.40;59.20
49379;DHT22;35254;47.990;-1.608;2023-11-21T03:01:45;21.40;59.10
49379;DHT22;35254;47.990;-1.608;2023-11-21T03:04:11;21.40;59.10
49379;DHT22;35254;47.990;-1.608;2023-11-21T03:06:36;21.40;59.00
49379;DHT22;35254;47.990;-1.608;2023-11-21T03:09:02;21.40;59.10
49379;DHT22;35254;47.990;-1.608;2023-11-21T03:11:28;21.40;59.00
49379;DHT22;35254;47.990;-1.608;2023-11-21T03:13:53;21.40;59.10
49379;DHT22;35254;47.990;-1.608;2023-11-21T03:16:19;21.40;58.90
49379;DHT22;35254;47.990;-1.608;2023-11-21T03:18:44;21.40;59.00
49379;DHT22;35254;47.990;-1.608;2023-11-21T03:21:12;21.40;58.80
49379;DHT22;35254;47.990;-1.608;2023-11-21T03:23:38;21.40;58.80
49379;DHT22;35254;47.990;-1.608;2023-11-21T03:26:04;21.40;58.80
49379;DHT22;35254;47.990;-1.608;2023-11-21T03:28:29;21.40;58.70
49379;DHT22;35254;47.990;-1.608;2023-11-21T03:30:58;21.40;58.60
49379;DHT22;35254;47.990;-1.608;2023-11-21T03:33:24;21.40;58.60
49379;DHT22;35254;47.990;-1.608;2023-11-21T03:35:49;21.40;58.60
49379;DHT22;35254;47.990;-1.608;2023-11-21T03:38:15;21.40;58.40
49379;DHT22;35254;47.990;-1.608;2023-11-21T03:40:41;21.40;58.40
49379;DHT22;35254;47.990;-1.608;2023-11-21T03:43:07;21.40;58.40
49379;DHT22;35254;47.990;-1.608;2023-11-21T03:45:33;21.40;58.30
49379;DHT22;35254;47.990;-1.608;2023-11-21T03:47:58;21.40;58.20
49379;DHT22;35254;47.990;-1.608;2023-11-21T03:50:28;21.40;58.30
49379;DHT22;35254;47.990;-1.608;2023-11-21T03:52:54;21.40;58.20
49379;DHT22;35254;47.990;-1.608;2023-11-21T03:55:19;21.40;58.10
49379;DHT22;35254;47.990;-1.608;2023-11-21T03:57:45;21.40;58.10
49379;DHT22;35254;47.990;-1.608;2023-11-21T04:00:11;21.40;58.00
49379;DHT22;35254;47.990;-1.608;2023-11-21T04:02:36;21.40;58.10
49379;DHT22;35254;47.990;-1.608;2023-11-21T04:05:02;21.40;58.00
49379;DHT22;35254;47.990;-1.608;2023-11-21T04:07:28;21.40;57.80
49379;DHT22;35254;47.990;-1.608;2023-11-21T04:09:54;21.40;57.80
49379;DHT22;35254;47.990;-1.608;2023-11-21T04:12:20;21.40;57.80
49379;DHT22;35254;47.990;-1.608;2023-11-21T04:14:45;21.30;57.80
49379;DHT22;35254;47.990;-1.608;2023-11-21T04:17:11;21.40;57.80
49379;DHT22;35254;47.990;-1.608;2023-11-21T04:19:37;21.40;57.80
49379;DHT22;35254;47.990;-1.608;2023-11-21T04:22:02;21.40;57.90
49379;DHT22;35254;47.990;-1.608;2023-11-21T04:24:28;21.40;57.90
49379;DHT22;35254;47.990;-1.608;2023-11-21T04:26:54;21.40;58.10
49379;DHT22;35254;47.990;-1.608;2023-11-21T04:29:19;21.30;57.90
49379;DHT22;35254;47.990;-1.608;2023-11-21T04:31:45;21.30;57.90
49379;DHT22;35254;47.990;-1.608;2023-11-21T04:34:11;21.40;57.90
49379;DHT22;35254;47.990;-1.608;2023-11-21T04:36:37;21.30;57.80
49379;DHT22;35254;47.990;-1.608;2023-11-21T04:39:03;21.30;57.90
49379;DHT22;35254;47.990;-1.608;2023-11-21T04:41:29;21.40;58.00
49379;DHT22;35254;47.990;-1.608;2023-11-21T04:43:56;21.30;57.80
49379;DHT22;35254;47.990;-1.608;2023-11-21T04:46:22;21.30;57.90
49379;DHT22;35254;47.990;-1.608;2023-11-21T04:48:48;21.30;57.80
49379;DHT22;35254;47.990;-1.608;2023-11-21T04:51:13;21.30;57.80
49379;DHT22;35254;47.990;-1.608;2023-11-21T04:53:39;21.30;57.80
49379;DHT22;35254;47.990;-1.608;2023-11-21T04:56:05;21.30;57.60
49379;DHT22;35254;47.990;-1.608;2023-11-21T04:58:31;21.30;57.80
49379;DHT22;35254;47.990;-1.608;2023-11-21T05:00:57;21.30;57.80
49379;DHT22;35254;47.990;-1.608;2023-11-21T05:03:23;21.30;57.60
49379;DHT22;35254;47.990;-1.608;2023-11-21T05:05:49;21.30;57.60
49379;DHT22;35254;47.990;-1.608;2023-11-21T05:08:14;21.30;57.60
49379;DHT22;35254;47.990;-1.608;2023-11-21T05:10:40;21.30;57.90
49379;DHT22;35254;47.990;-1.608;2023-11-21T05:13:06;21.30;57.60
49379;DHT22;35254;47.990;-1.608;2023-11-21T05:15:36;21.30;57.40
49379;DHT22;35254;47.990;-1.608;2023-11-21T05:18:03;21.30;57.50
49379;DHT22;35254;47.990;-1.608;2023-11-21T05:20:28;21.30;57.60
49379;DHT22;35254;47.990;-1.608;2023-11-21T05:22:54;21.30;57.50
49379;DHT22;35254;47.990;-1.608;2023-11-21T05:25:19;21.20;57.50
49379;DHT22;35254;47.990;-1.608;2023-11-21T05:27:46;21.30;57.50
49379;DHT22;35254;47.990;-1.608;2023-11-21T05:30:13;21.30;57.50
49379;DHT22;35254;47.990;-1.608;2023-11-21T05:32:39;21.30;57.40
49379;DHT22;35254;47.990;-1.608;2023-11-21T05:35:07;21.20;57.60
49379;DHT22;35254;47.990;-1.608;2023-11-21T05:37:37;21.20;57.40
49379;DHT22;35254;47.990;-1.608;2023-11-21T05:40:05;21.30;57.30
49379;DHT22;35254;47.990;-1.608;2023-11-21T05:42:35;21.20;57.30
49379;DHT22;35254;47.990;-1.608;2023-11-21T05:45:01;21.20;57.20
49379;DHT22;35254;47.990;-1.608;2023-11-21T05:47:46;21.20;57.20
49379;DHT22;35254;47.990;-1.608;2023-11-21T05:50:13;21.20;57.20
49379;DHT22;35254;47.990;-1.608;2023-11-21T05:52:46;21.20;57.10
49379;DHT22;35254;47.990;-1.608;2023-11-21T05:55:12;21.20;56.90
49379;DHT22;35254;47.990;-1.608;2023-11-21T05:57:39;21.20;57.40
49379;DHT22;35254;47.990;-1.608;2023-11-21T06:00:06;21.20;57.50
49379;DHT22;35254;47.990;-1.608;2023-11-21T06:02:52;21.20;57.10
49379;DHT22;35254;47.990;-1.608;2023-11-21T06:05:22;21.20;57.30
49379;DHT22;35254;47.990;-1.608;2023-11-21T06:07:52;21.20;57.30
49379;DHT22;35254;47.990;-1.608;2023-11-21T06:10:20;21.20;57.20
49379;DHT22;35254;47.990;-1.608;2023-11-21T06:12:46;21.20;57.30
49379;DHT22;35254;47.990;-1.608;2023-11-21T06:15:12;21.20;57.20
49379;DHT22;35254;47.990;-1.608;2023-11-21T06:17:42;21.20;57.20
49379;DHT22;35254;47.990;-1.608;2023-11-21T06:20:09;21.20;57.10
49379;DHT22;35254;47.990;-1.608;2023-11-21T06:22:39;21.20;57.10
49379;DHT22;35254;47.990;-1.608;2023-11-21T06:25:05;21.20;57.20
49379;DHT22;35254;47.990;-1.608;2023-11-21T06:27:37;21.20;57.20
49379;DHT22;35254;47.990;-1.608;2023-11-21T06:30:03;21.20;57.30
49379;DHT22;35254;47.990;-1.608;2023-11-21T06:32:29;21.20;57.10
49379;DHT22;35254;47.990;-1.608;2023-11-21T06:34:56;21.20;57.30
49379;DHT22;35254;47.990;-1.608;2023-11-21T06:37:21;21.20;57.30
49379;DHT22;35254;47.990;-1.608;2023-11-21T06:39:49;21.20;57.30
49379;DHT22;35254;47.990;-1.608;2023-11-21T06:42:14;21.20;57.00
49379;DHT22;35254;47.990;-1.608;2023-11-21T06:44:41;21.10;57.00
49379;DHT22;35254;47.990;-1.608;2023-11-21T06:47:07;21.10;57.10
49379;DHT22;35254;47.990;-1.608;2023-11-21T06:49:32;21.20;56.90
49379;DHT22;35254;47.990;-1.608;2023-11-21T06:51:58;21.20;57.20
49379;DHT22;35254;47.990;-1.608;2023-11-21T06:54:24;21.10;56.90
49379;DHT22;35254;47.990;-1.608;2023-11-21T06:56:50;21.10;56.90
49379;DHT22;35254;47.990;-1.608;2023-11-21T06:59:16;21.10;56.90
49379;DHT22;35254;47.990;-1.608;2023-11-21T07:01:41;21.10;56.90
49379;DHT22;35254;47.990;-1.608;2023-11-21T07:04:08;21.10;57.10
49379;DHT22;35254;47.990;-1.608;2023-11-21T07:06:35;21.10;56.90
49379;DHT22;35254;47.990;-1.608;2023-11-21T07:09:00;21.10;56.90
49379;DHT22;35254;47.990;-1.608;2023-11-21T07:11:27;21.10;56.90
49379;DHT22;35254;47.990;-1.608;2023-11-21T07:13:53;21.10;56.80
49379;DHT22;35254;47.990;-1.608;2023-11-21T07:16:18;21.10;56.80
49379;DHT22;35254;47.990;-1.608;2023-11-21T07:18:44;21.20;56.80
49379;DHT22;35254;47.990;-1.608;2023-11-21T07:21:10;21.10;56.90
49379;DHT22;35254;47.990;-1.608;2023-11-21T07:23:38;21.10;57.10
49379;DHT22;35254;47.990;-1.608;2023-11-21T07:26:03;21.10;57.10
49379;DHT22;35254;47.990;-1.608;2023-11-21T07:28:34;21.10;57.30
49379;DHT22;35254;47.990;-1.608;2023-11-21T07:31:00;21.10;57.50
49379;DHT22;35254;47.990;-1.608;2023-11-21T07:33:25;21.10;57.40
49379;DHT22;35254;47.990;-1.608;2023-11-21T07:35:51;21.10;57.30
49379;DHT22;35254;47.990;-1.608;2023-11-21T07:38:17;21.10;57.30
49379;DHT22;35254;47.990;-1.608;2023-11-21T07:40:43;21.10;57.60
49379;DHT22;35254;47.990;-1.608;2023-11-21T07:43:09;21.10;57.70
49379;DHT22;35254;47.990;-1.608;2023-11-21T07:45:36;21.10;57.90
49379;DHT22;35254;47.990;-1.608;2023-11-21T07:48:01;21.10;57.70
49379;DHT22;35254;47.990;-1.608;2023-11-21T07:50:28;21.10;57.70
49379;DHT22;35254;47.990;-1.608;2023-11-21T07:52:54;21.10;57.70
49379;DHT22;35254;47.990;-1.608;2023-11-21T07:55:20;21.00;57.70
49379;DHT22;35254;47.990;-1.608;2023-11-21T07:57:46;21.00;57.60
49379;DHT22;35254;47.990;-1.608;2023-11-21T08:00:12;21.10;57.70
49379;DHT22;35254;47.990;-1.608;2023-11-21T08:02:40;21.00;57.60
49379;DHT22;35254;47.990;-1.608;2023-11-21T08:05:11;21.00;57.70
49379;DHT22;35254;47.990;-1.608;2023-11-21T08:07:37;21.00;57.00
49379;DHT22;35254;47.990;-1.608;2023-11-21T08:10:03;21.00;57.10
49379;DHT22;35254;47.990;-1.608;2023-11-21T08:12:30;21.10;57.10
49379;DHT22;35254;47.990;-1.608;2023-11-21T08:14:56;21.10;57.00
49379;DHT22;35254;47.990;-1.608;2023-11-21T08:17:22;21.20;56.90
49379;DHT22;35254;47.990;-1.608;2023-11-21T08:19:48;21.20;56.80
49379;DHT22;35254;47.990;-1.608;2023-11-21T08:22:18;21.20;56.70
49379;DHT22;35254;47.990;-1.608;2023-11-21T08:24:44;21.20;56.60
49379;DHT22;35254;47.990;-1.608;2023-11-21T08:27:10;21.30;56.50
49379;DHT22;35254;47.990;-1.608;2023-11-21T08:29:35;21.30;56.60
49379;DHT22;35254;47.990;-1.608;2023-11-21T08:32:02;21.30;56.50
49379;DHT22;35254;47.990;-1.608;2023-11-21T08:34:28;21.40;56.40
49379;DHT22;35254;47.990;-1.608;2023-11-21T08:36:54;21.40;56.40
49379;DHT22;35254;47.990;-1.608;2023-11-21T08:39:21;21.40;56.40
49379;DHT22;35254;47.990;-1.608;2023-11-21T08:41:49;21.40;56.40
49379;DHT22;35254;47.990;-1.608;2023-11-21T08:44:16;21.40;56.40
49379;DHT22;35254;47.990;-1.608;2023-11-21T08:46:46;21.40;56.40
49379;DHT22;35254;47.990;-1.608;2023-11-21T08:49:12;21.40;56.40
49379;DHT22;35254;47.990;-1.608;2023-11-21T08:51:38;21.40;56.30
49379;DHT22;35254;47.990;-1.608;2023-11-21T08:54:04;21.40;56.40
49379;DHT22;35254;47.990;-1.608;2023-11-21T08:56:33;21.40;56.40
49379;DHT22;35254;47.990;-1.608;2023-11-21T08:58:59;21.40;56.40
49379;DHT22;35254;47.990;-1.608;2023-11-21T09:01:31;21.40;56.40
49379;DHT22;35254;47.990;-1.608;2023-11-21T09:03:58;21.40;56.40
49379;DHT22;35254;47.990;-1.608;2023-11-21T09:06:24;21.50;56.40
49379;DHT22;35254;47.990;-1.608;2023-11-21T09:08:50;21.40;56.40
49379;DHT22;35254;47.990;-1.608;2023-11-21T09:11:15;21.40;56.50
49379;DHT22;35254;47.990;-1.608;2023-11-21T09:13:41;21.40;56.70
49379;DHT22;35254;47.990;-1.608;2023-11-21T09:16:07;21.50;56.70
49379;DHT22;35254;47.990;-1.608;2023-11-21T09:18:32;21.50;56.60
49379;DHT22;35254;47.990;-1.608;2023-11-21T09:20:58;21.50;56.60
49379;DHT22;35254;47.990;-1.608;2023-11-21T09:23:24;21.50;56.60
49379;DHT22;35254;47.990;-1.608;2023-11-21T09:25:50;21.50;56.60
49379;DHT22;35254;47.990;-1.608;2023-11-21T09:28:17;21.50;56.60
49379;DHT22;35254;47.990;-1.608;2023-11-21T09:30:43;21.50;56.70
49379;DHT22;35254;47.990;-1.608;2023-11-21T09:33:09;21.50;56.70
49379;DHT22;35254;47.990;-1.608;2023-11-21T09:35:37;21.50;56.60
49379;DHT22;35254;47.990;-1.608;2023-11-21T09:38:04;21.50;56.60
49379;DHT22;35254;47.990;-1.608;2023-11-21T09:40:35;21.50;56.50
49379;DHT22;35254;47.990;-1.608;2023-11-21T09:43:18;21.50;56.60
49379;DHT22;35254;47.990;-1.608;2023-11-21T09:45:48;21.50;56.60
49379;DHT22;35254;47.990;-1.608;2023-11-21T09:48:20;21.50;56.60
49379;DHT22;35254;47.990;-1.608;2023-11-21T09:50:47;21.50;56.60
49379;DHT22;35254;47.990;-1.608;2023-11-21T09:53:13;21.50;56.60
49379;DHT22;35254;47.990;-1.608;2023-11-21T09:55:43;21.40;56.60
49379;DHT22;35254;47.990;-1.608;2023-11-21T09:58:09;21.50;56.60
49379;DHT22;35254;47.990;-1.608;2023-11-21T10:00:42;21.50;56.70
49379;DHT22;35254;47.990;-1.608;2023-11-21T10:03:08;21.40;56.90
49379;DHT22;35254;47.990;-1.608;2023-11-21T10:05:35;21.50;56.90
49379;DHT22;35254;47.990;-1.608;2023-11-21T10:08:02;21.50;56.90
49379;DHT22;35254;47.990;-1.608;2023-11-21T10:10:30;21.50;56.90
49379;DHT22;35254;47.990;-1.608;2023-11-21T10:13:01;21.50;56.90
49379;DHT22;35254;47.990;-1.608;2023-11-21T10:15:27;21.50;56.80
49379;DHT22;35254;47.990;-1.608;2023-11-21T10:17:54;21.50;56.70
49379;DHT22;35254;47.990;-1.608;2023-11-21T10:20:20;21.50;56.70
49379;DHT22;35254;47.990;-1.608;2023-11-21T10:22:47;21.50;56.70
49379;DHT22;35254;47.990;-1.608;2023-11-21T10:25:13;21.50;56.80
49379;DHT22;35254;47.990;-1.608;2023-11-21T10:27:43;21.50;56.80
49379;DHT22;35254;47.990;-1.608;2023-11-21T10:30:11;21.50;56.80
49379;DHT22;35254;47.990;-1.608;2023-11-21T10:32:40;21.40;56.80
49379;DHT22;35254;47.990;-1.608;2023-11-21T10:35:08;21.50;56.80
49379;DHT22;35254;47.990;-1.608;2023-11-21T10:37:40;21.40;56.80
49379;DHT22;35254;47.990;-1.608;2023-11-21T10:40:10;21.40;56.90
49379;DHT22;35254;47.990;-1.608;2023-11-21T10:42:40;21.50;56.90
49379;DHT22;35254;47.990;-1.608;2023-11-21T10:45:06;21.40;56.90
49379;DHT22;35254;47.990;-1.608;2023-11-21T10:47:39;21.40;56.90
49379;DHT22;35254;47.990;-1.608;2023-11-21T10:50:06;21.40;56.90
49379;DHT22;35254;47.990;-1.608;2023-11-21T10:52:37;21.40;56.90
49379;DHT22;35254;47.990;-1.608;2023-11-21T10:55:20;21.50;56.90
49379;DHT22;35254;47.990;-1.608;2023-11-21T10:57:53;21.40;56.90
49379;DHT22;35254;47.990;-1.608;2023-11-21T11:00:20;21.40;56.90
49379;DHT22;35254;47.990;-1.608;2023-11-21T11:02:49;21.40;56.90
49379;DHT22;35254;47.990;-1.608;2023-11-21T11:05:19;21.40;56.80
49379;DHT22;35254;47.990;-1.608;2023-11-21T11:07:48;21.40;56.90
49379;DHT22;35254;47.990;-1.608;2023-11-21T11:10:14;21.40;56.90
49379;DHT22;35254;47.990;-1.608;2023-11-21T11:12:40;21.40;56.80
49379;DHT22;35254;47.990;-1.608;2023-11-21T11:15:08;21.40;56.90
49379;DHT22;35254;47.990;-1.608;2023-11-21T11:17:37;21.40;56.80
49379;DHT22;35254;47.990;-1.608;2023-11-21T11:20:09;21.40;56.90
49379;DHT22;35254;47.990;-1.608;2023-11-21T11:22:42;21.40;56.90
49379;DHT22;35254;47.990;-1.608;2023-11-21T11:28:07;21.40;56.90
49379;DHT22;35254;47.990;-1.608;2023-11-21T11:30:55;21.40;56.70
49379;DHT22;35254;47.990;-1.608;2023-11-21T11:33:43;21.40;56.80
49379;DHT22;35254;47.990;-1.608;2023-11-21T11:36:29;21.40;56.80
49379;DHT22;35254;47.990;-1.608;2023-11-21T11:38:56;21.40;56.90
49379;DHT22;35254;47.990;-1.608;2023-11-21T11:41:33;21.30;56.90
49379;DHT22;35254;47.990;-1.608;2023-11-21T11:44:01;21.40;56.90
49379;DHT22;35254;47.990;-1.608;2023-11-21T11:46:47;21.40;57.00
49379;DHT22;35254;47.990;-1.608;2023-11-21T11:49:27;21.40;57.00
49379;DHT22;35254;47.990;-1.608;2023-11-21T11:54:37;21.40;57.00
49379;DHT22;35254;47.990;-1.608;2023-11-21T11:57:03;21.30;57.00
49379;DHT22;35254;47.990;-1.608;2023-11-21T11:59:29;21.40;57.10
49379;DHT22;35254;47.990;-1.608;2023-11-21T12:01:57;21.30;57.10
49379;DHT22;35254;47.990;-1.608;2023-11-21T12:04:25;21.30;57.10
49379;DHT22;35254;47.990;-1.608;2023-11-21T12:07:00;21.30;57.10
49379;DHT22;35254;47.990;-1.608;2023-11-21T12:09:29;21.30;57.10
49379;DHT22;35254;47.990;-1.608;2023-11-21T12:12:02;21.30;57.10
49379;DHT22;35254;47.990;-1.608;2023-11-21T12:14:36;21.30;57.10
49379;DHT22;35254;47.990;-1.608;2023-11-21T12:17:03;21.30;57.10
49379;DHT22;35254;47.990;-1.608;2023-11-21T12:19:30;21.30;57.00
49379;DHT22;35254;47.990;-1.608;2023-11-21T12:21:55;21.30;57.10
49379;DHT22;35254;47.990;-1.608;2023-11-21T12:24:21;21.30;56.60
49379;DHT22;35254;47.990;-1.608;2023-11-21T12:26:47;21.30;55.30
49379;DHT22;35254;47.990;-1.608;2023-11-21T12:29:13;21.30;56.10
49379;DHT22;35254;47.990;-1.608;2023-11-21T12:31:39;21.30;56.00
49379;DHT22;35254;47.990;-1.608;2023-11-21T12:34:05;21.20;56.40
49379;DHT22;35254;47.990;-1.608;2023-11-21T12:36:32;21.30;56.60
49379;DHT22;35254;47.990;-1.608;2023-11-21T12:38:59;21.20;55.80
49379;DHT22;35254;47.990;-1.608;2023-11-21T12:41:25;21.20;55.90
49379;DHT22;35254;47.990;-1.608;2023-11-21T12:43:51;21.20;56.20
49379;DHT22;35254;47.990;-1.608;2023-11-21T12:46:17;21.20;56.70
49379;DHT22;35254;47.990;-1.608;2023-11-21T12:48:43;21.20;56.60
49379;DHT22;35254;47.990;-1.608;2023-11-21T12:51:10;21.20;56.70
49379;DHT22;35254;47.990;-1.608;2023-11-21T12:53:44;21.30;57.00
49379;DHT22;35254;47.990;-1.608;2023-11-21T12:56:11;21.20;56.90
49379;DHT22;35254;47.990;-1.608;2023-11-21T12:58:38;21.20;56.70
49379;DHT22;35254;47.990;-1.608;2023-11-21T13:01:07;21.20;56.90
49379;DHT22;35254;47.990;-1.608;2023-11-21T13:03:40;21.20;56.80
49379;DHT22;35254;47.990;-1.608;2023-11-21T13:06:07;21.20;56.80
49379;DHT22;35254;47.990;-1.608;2023-11-21T13:08:33;21.20;57.00
49379;DHT22;35254;47.990;-1.608;2023-11-21T13:10:59;21.20;56.60
49379;DHT22;35254;47.990;-1.608;2023-11-21T13:13:28;21.20;56.50
49379;DHT22;35254;47.990;-1.608;2023-11-21T13:16:02;21.20;56.40
49379;DHT22;35254;47.990;-1.608;2023-11-21T13:18:31;21.20;56.40
49379;DHT22;35254;47.990;-1.608;2023-11-21T13:20:58;21.20;56.50
49379;DHT22;35254;47.990;-1.608;2023-11-21T13:23:25;21.20;56.50
49379;DHT22;35254;47.990;-1.608;2023-11-21T13:25:52;21.20;56.40
49379;DHT22;35254;47.990;-1.608;2023-11-21T13:28:18;21.20;56.40
49379;DHT22;35254;47.990;-1.608;2023-11-21T13:30:46;21.20;56.40
49379;DHT22;35254;47.990;-1.608;2023-11-21T13:33:14;21.20;56.70
49379;DHT22;35254;47.990;-1.608;2023-11-21T13:35:43;21.20;57.10
49379;DHT22;35254;47.990;-1.608;2023-11-21T13:38:15;21.20;56.90
49379;DHT22;35254;47.990;-1.608;2023-11-21T13:40:50;21.20;57.10
49379;DHT22;35254;47.990;-1.608;2023-11-21T13:43:19;21.20;57.20
49379;DHT22;35254;47.990;-1.608;2023-11-21T13:45:48;21.20;57.40
49379;DHT22;35254;47.990;-1.608;2023-11-21T13:48:17;21.20;56.80
49379;DHT22;35254;47.990;-1.608;2023-11-21T13:50:51;21.20;57.10
49379;DHT22;35254;47.990;-1.608;2023-11-21T13:53:34;21.20;57.30
49379;DHT22;35254;47.990;-1.608;2023-11-21T13:56:03;21.20;57.30
49379;DHT22;35254;47.990;-1.608;2023-11-21T13:58:29;21.20;57.40
49379;DHT22;35254;47.990;-1.608;2023-11-21T14:01:12;21.20;57.20
49379;DHT22;35254;47.990;-1.608;2023-11-21T14:03:57;21.20;57.40
49379;DHT22;35254;47.990;-1.608;2023-11-21T14:06:26;21.20;57.50
49379;DHT22;35254;47.990;-1.608;2023-11-21T14:09:00;21.20;57.40
49379;DHT22;35254;47.990;-1.608;2023-11-21T14:11:30;21.20;57.40
49379;DHT22;35254;47.990;-1.608;2023-11-21T14:13:56;21.20;57.40
49379;DHT22;35254;47.990;-1.608;2023-11-21T14:16:21;21.20;57.60
49379;DHT22;35254;47.990;-1.608;2023-11-21T14:18:48;21.20;57.20
49379;DHT22;35254;47.990;-1.608;2023-11-21T14:21:27;21.20;57.30
49379;DHT22;35254;47.990;-1.608;2023-11-21T14:23:52;21.20;57.30
49379;DHT22;35254;47.990;-1.608;2023-11-21T14:26:20;21.20;57.20
49379;DHT22;35254;47.990;-1.608;2023-11-21T14:28:46;21.20;57.10
49379;DHT22;35254;47.990;-1.608;2023-11-21T14:31:14;21.20;57.00
49379;DHT22;35254;47.990;-1.608;2023-11-21T14:33:43;21.20;57.10
49379;DHT22;35254;47.990;-1.608;2023-11-21T14:36:09;21.20;57.10
49379;DHT22;35254;47.990;-1.608;2023-11-21T14:38:36;21.20;57.30
49379;DHT22;35254;47.990;-1.608;2023-11-21T14:41:06;21.20;57.00
49379;DHT22;35254;47.990;-1.608;2023-11-21T14:43:36;21.10;57.30
49379;DHT22;35254;47.990;-1.608;2023-11-21T14:46:04;21.10;57.30
49379;DHT22;35254;47.990;-1.608;2023-11-21T14:48:35;21.10;57.30
49379;DHT22;35254;47.990;-1.608;2023-11-21T14:51:21;21.10;57.20
49379;DHT22;35254;47.990;-1.608;2023-11-21T14:53:59;21.20;57.30
49379;DHT22;35254;47.990;-1.608;2023-11-21T14:56:35;21.10;57.40
49379;DHT22;35254;47.990;-1.608;2023-11-21T14:59:02;21.10;57.50
49379;DHT22;35254;47.990;-1.608;2023-11-21T15:01:38;21.10;57.60
49379;DHT22;35254;47.990;-1.608;2023-11-21T15:04:22;21.20;57.40
49379;DHT22;35254;47.990;-1.608;2023-11-21T15:07:05;21.10;57.50
49379;DHT22;35254;47.990;-1.608;2023-11-21T15:09:31;21.10;57.40
49379;DHT22;35254;47.990;-1.608;2023-11-21T15:11:57;21.10;57.60
49379;DHT22;35254;47.990;-1.608;2023-11-21T15:14:29;21.10;57.50
49379;DHT22;35254;47.990;-1.608;2023-11-21T15:16:58;21.10;57.50
49379;DHT22;35254;47.990;-1.608;2023-11-21T15:19:26;21.10;57.70
49379;DHT22;35254;47.990;-1.608;2023-11-21T15:21:53;21.10;57.30
49379;DHT22;35254;47.990;-1.608;2023-11-21T15:24:19;21.00;57.70